sensor_id;sensor_type;location;lat;lon;timestamp;temperature;humidity
14946;DHT22;7567;50.916;6.900;2023-07-29T00:01:34;19.40;99.90
14946;DHT22;7567;50.916;6.900;2023-07-29T00:04:00;19.40;99.90
14946;DHT22;7567;50.916;6.900;2023-07-29T00:06:27;19.40;99.90
14946;DHT22;7567;50.916;6.900;2023-07-29T00:08:53;19.40;99.90
14946;DHT22;7567;50.916;6.900;2023-07-29T00:11:19;19.40;99.90
14946;DHT22;7567;50.916;6.900;2023-07-29T00:13:45;19.40;99.90
14946;DHT22;7567;50.916;6.900;2023-07-29T00:16:12;19.50;99.90
14946;DHT22;7567;50.916;6.900;2023-07-29T00:18:41;19.40;99.90
14946;DHT22;7567;50.916;6.900;2023-07-29T00:21:07;19.40;99.90
14946;DHT22;7567;50.916;6.900;2023-07-29T00:23:33;19.40;99.90
14946;DHT22;7567;50.916;6.900;2023-07-29T00:25:59;19.40;99.90
14946;DHT22;7567;50.916;6.900;2023-07-29T00:28:25;19.40;99.90
14946;DHT22;7567;50.916;6.900;2023-07-29T00:30:51;19.40;99.90
14946;DHT22;7567;50.916;6.900;2023-07-29T00:33:17;19.40;99.90
14946;DHT22;7567;50.916;6.900;2023-07-29T00:35:43;19.40;99.90
14946;DHT22;7567;50.916;6.900;2023-07-29T00:38:09;19.40;99.90
14946;DHT22;7567;50.916;6.900;2023-07-29T00:40:35;19.40;99.90
14946;DHT22;7567;50.916;6.900;2023-07-29T00:43:20;19.40;99.90
14946;DHT22;7567;50.916;6.900;2023-07-29T00:45:47;19.40;99.90
14946;DHT22;7567;50.916;6.900;2023-07-29T00:48:16;19.30;99.90
14946;DHT22;7567;50.916;6.900;2023-07-29T00:50:42;19.30;99.90
14946;DHT22;7567;50.916;6.900;2023-07-29T00:53:08;19.20;99.90
14946;DHT22;7567;50.916;6.900;2023-07-29T00:55:34;19.20;99.90
14946;DHT22;7567;50.916;6.900;2023-07-29T00:58:00;19.10;99.90
14946;DHT22;7567;50.916;6.900;2023-07-29T01:00:27;19.10;99.90
14946;DHT22;7567;50.916;6.900;2023-07-29T01:02:53;19.20;99.90
14946;DHT22;7567;50.916;6.900;2023-07-29T01:05:20;19.20;99.90
14946;DHT22;7567;50.916;6.900;2023-07-29T01:16:33;19.20;99.90
14946;DHT22;7567;50.916;6.900;2023-07-29T01:19:05;19.20;99.90
14946;DHT22;7567;50.916;6.900;2023-07-29T01:21:35;19.10;99.90
14946;DHT22;7567;50.916;6.900;2023-07-29T01:24:02;19.10;99.90
14946;DHT22;7567;50.916;6.900;2023-07-29T01:26:28;19.10;99.90
14946;DHT22;7567;50.916;6.900;2023-07-29T01:28:56;19.10;99.90
14946;DHT22;7567;50.916;6.900;2023-07-29T01:34:02;19.10;99.90
14946;DHT22;7567;50.916;6.900;2023-07-29T01:36:32;19.10;99.90
14946;DHT22;7567;50.916;6.900;2023-07-29T01:39:00;19.10;99.90
14946;DHT22;7567;50.916;6.900;2023-07-29T01:41:27;19.20;99.90
14946;DHT22;7567;50.916;6.900;2023-07-29T01:43:54;19.20;99.90
14946;DHT22;7567;50.916;6.900;2023-07-29T01:46:21;19.20;99.90
14946;DHT22;7567;50.916;6.900;2023-07-29T01:48:47;19.20;99.90
14946;DHT22;7567;50.916;6.900;2023-07-29T01:51:12;19.20;99.90
14946;DHT22;7567;50.916;6.900;2023-07-29T01:53:38;19.20;99.90
14946;DHT22;7567;50.916;6.900;2023-07-29T01:56:04;19.20;99.90
14946;DHT22;7567;50.916;6.900;2023-07-29T01:58:30;19.20;99.90
14946;DHT22;7567;50.916;6.900;2023-07-29T02:00:56;19.20;99.90
14946;DHT22;7567;50.916;6.900;2023-07-29T02:03:22;19.10;99.90
14946;DHT22;7567;50.916;6.900;2023-07-29T02:05:47;19.00;99.90
14946;DHT22;7567;50.916;6.900;2023-07-29T02:08:13;19.00;99.90
14946;DHT22;7567;50.916;6.900;2023-07-29T02:10:39;19.00;99.90
14946;DHT22;7567;50.916;6.900;2023-07-29T02:13:06;19.10;99.90
14946;DHT22;7567;50.916;6.900;2023-07-29T02:15:33;19.10;99.90
14946;DHT22;7567;50.916;6.900;2023-07-29T02:17:59;19.10;99.90
14946;DHT22;7567;50.916;6.900;2023-07-29T02:20:26;19.00;99.90
14946;DHT22;7567;50.916;6.900;2023-07-29T02:22:53;19.00;99.90
14946;DHT22;7567;50.916;6.900;2023-07-29T02:25:18;19.00;99.90
14946;DHT22;7567;50.916;6.900;2023-07-29T02:27:44;19.00;99.90
14946;DHT22;7567;50.916;6.900;2023-07-29T02:30:11;19.00;99.90
14946;DHT22;7567;50.916;6.900;2023-07-29T02:32:38;19.00;99.90
14946;DHT22;7567;50.916;6.900;2023-07-29T02:35:04;19.00;99.90
14946;DHT22;7567;50.916;6.900;2023-07-29T02:37:30;18.90;99.90
14946;DHT22;7567;50.916;6.900;2023-07-29T02:39:56;18.90;99.90
14946;DHT22;7567;50.916;6.900;2023-07-29T02:42:22;18.90;99.90
14946;DHT22;7567;50.916;6.900;2023-07-29T02:44:48;18.80;99.90
14946;DHT22;7567;50.916;6.900;2023-07-29T02:47:14;18.80;99.90
14946;DHT22;7567;50.916;6.900;2023-07-29T02:49:40;18.80;99.90
14946;DHT22;7567;50.916;6.900;2023-07-29T02:52:06;18.80;99.90
14946;DHT22;7567;50.916;6.900;2023-07-29T02:54:32;18.80;99.90
14946;DHT22;7567;50.916;6.900;2023-07-29T02:56:58;18.80;99.90
14946;DHT22;7567;50.916;6.900;2023-07-29T02:59:24;18.80;99.90
14946;DHT22;7567;50.916;6.900;2023-07-29T03:01:50;18.90;99.90
14946;DHT22;7567;50.916;6.900;2023-07-29T03:04:16;18.90;99.90
14946;DHT22;7567;50.916;6.900;2023-07-29T03:06:42;18.90;99.90
14946;DHT22;7567;50.916;6.900;2023-07-29T03:09:08;18.90;99.90
14946;DHT22;7567;50.916;6.900;2023-07-29T03:11:34;19.00;99.90
14946;DHT22;7567;50.916;6.900;2023-07-29T03:14:00;18.90;99.90
14946;DHT22;7567;50.916;6.900;2023-07-29T03:16:26;18.90;99.90
14946;DHT22;7567;50.916;6.900;2023-07-29T03:18:52;18.90;99.90
14946;DHT22;7567;50.916;6.900;2023-07-29T03:21:18;18.90;99.90
14946;DHT22;7567;50.916;6.900;2023-07-29T03:23:44;18.90;99.90
14946;DHT22;7567;50.916;6.900;2023-07-29T03:26:10;18.90;99.90
14946;DHT22;7567;50.916;6.900;2023-07-29T03:28:41;18.90;99.90
14946;DHT22;7567;50.916;6.900;2023-07-29T03:31:08;18.80;99.90
14946;DHT22;7567;50.916;6.900;2023-07-29T03:33:34;18.90;99.90
14946;DHT22;7567;50.916;6.900;2023-07-29T03:36:00;18.90;99.90
14946;DHT22;7567;50.916;6.900;2023-07-29T03:38:26;18.80;99.90
14946;DHT22;7567;50.916;6.900;2023-07-29T03:40:53;18.80;99.90
14946;DHT22;7567;50.916;6.900;2023-07-29T03:43:21;18.80;99.90
14946;DHT22;7567;50.916;6.900;2023-07-29T03:45:47;18.80;99.90
14946;DHT22;7567;50.916;6.900;2023-07-29T03:48:13;18.80;99.90
14946;DHT22;7567;50.916;6.900;2023-07-29T03:50:39;18.70;99.90
14946;DHT22;7567;50.916;6.900;2023-07-29T03:53:05;18.60;99.90
14946;DHT22;7567;50.916;6.900;2023-07-29T03:55:32;18.70;99.90
14946;DHT22;7567;50.916;6.900;2023-07-29T03:57:59;18.70;99.90
14946;DHT22;7567;50.916;6.900;2023-07-29T04:00:25;18.60;99.90
14946;DHT22;7567;50.916;6.900;2023-07-29T04:02:51;18.70;99.90
14946;DHT22;7567;50.916;6.900;2023-07-29T04:05:17;18.70;99.90
14946;DHT22;7567;50.916;6.900;2023-07-29T04:07:44;18.70;99.90
14946;DHT22;7567;50.916;6.900;2023-07-29T04:10:10;18.70;99.90
14946;DHT22;7567;50.916;6.900;2023-07-29T04:12:36;18.70;99.90
14946;DHT22;7567;50.916;6.900;2023-07-29T04:15:02;18.70;99.90
14946;DHT22;7567;50.916;6.900;2023-07-29T04:17:28;18.60;99.90
14946;DHT22;7567;50.916;6.900;2023-07-29T04:19:54;18.60;99.90
14946;DHT22;7567;50.916;6.900;2023-07-29T04:22:19;18.60;99.90
14946;DHT22;7567;50.916;6.900;2023-07-29T04:24:46;18.60;99.90
14946;DHT22;7567;50.916;6.900;2023-07-29T04:27:12;18.60;99.90
14946;DHT22;7567;50.916;6.900;2023-07-29T04:29:38;18.60;99.90
14946;DHT22;7567;50.916;6.900;2023-07-29T04:32:04;18.60;99.90
14946;DHT22;7567;50.916;6.900;2023-07-29T04:34:31;18.60;99.90
14946;DHT22;7567;50.916;6.900;2023-07-29T04:36:57;18.60;99.90
14946;DHT22;7567;50.916;6.900;2023-07-29T04:39:23;18.60;99.90
14946;DHT22;7567;50.916;6.900;2023-07-29T04:41:49;18.60;99.90
14946;DHT22;7567;50.916;6.900;2023-07-29T04:44:15;18.70;99.90
14946;DHT22;7567;50.916;6.900;2023-07-29T04:46:41;18.70;99.90
14946;DHT22;7567;50.916;6.900;2023-07-29T04:49:07;18.70;99.90
14946;DHT22;7567;50.916;6.900;2023-07-29T04:51:33;18.60;99.90
14946;DHT22;7567;50.916;6.900;2023-07-29T04:53:59;18.60;99.90
14946;DHT22;7567;50.916;6.900;2023-07-29T04:56:25;18.60;99.90
14946;DHT22;7567;50.916;6.900;2023-07-29T04:58:51;18.70;99.90
14946;DHT22;7567;50.916;6.900;2023-07-29T05:01:18;18.70;99.90
14946;DHT22;7567;50.916;6.900;2023-07-29T05:03:44;18.70;99.90
14946;DHT22;7567;50.916;6.900;2023-07-29T05:06:10;18.70;99.90
14946;DHT22;7567;50.916;6.900;2023-07-29T05:08:36;18.70;99.90
14946;DHT22;7567;50.916;6.900;2023-07-29T05:11:02;18.70;99.90
14946;DHT22;7567;50.916;6.900;2023-07-29T05:13:28;18.70;99.90
14946;DHT22;7567;50.916;6.900;2023-07-29T05:15:54;18.60;99.90
14946;DHT22;7567;50.916;6.900;2023-07-29T05:18:20;18.60;99.90
14946;DHT22;7567;50.916;6.900;2023-07-29T05:20:47;18.70;99.90
14946;DHT22;7567;50.916;6.900;2023-07-29T05:23:13;18.70;99.90
14946;DHT22;7567;50.916;6.900;2023-07-29T05:25:39;18.70;99.90
14946;DHT22;7567;50.916;6.900;2023-07-29T05:28:05;18.70;99.90
14946;DHT22;7567;50.916;6.900;2023-07-29T05:30:32;18.70;99.90
14946;DHT22;7567;50.916;6.900;2023-07-29T05:33:00;18.70;99.90
14946;DHT22;7567;50.916;6.900;2023-07-29T05:35:26;18.70;99.90
14946;DHT22;7567;50.916;6.900;2023-07-29T05:37:52;18.80;99.90
14946;DHT22;7567;50.916;6.900;2023-07-29T05:40:18;18.70;99.90
14946;DHT22;7567;50.916;6.900;2023-07-29T05:42:44;18.70;99.90
14946;DHT22;7567;50.916;6.900;2023-07-29T05:45:11;18.70;99.90
14946;DHT22;7567;50.916;6.900;2023-07-29T05:47:37;18.70;99.90
14946;DHT22;7567;50.916;6.900;2023-07-29T05:50:04;18.70;99.90
14946;DHT22;7567;50.916;6.900;2023-07-29T05:52:31;18.70;99.90
14946;DHT22;7567;50.916;6.900;2023-07-29T05:54:57;18.70;99.90
14946;DHT22;7567;50.916;6.900;2023-07-29T05:57:23;18.80;99.90
14946;DHT22;7567;50.916;6.900;2023-07-29T05:59:49;18.90;99.90
14946;DHT22;7567;50.916;6.900;2023-07-29T06:02:15;18.90;99.90
14946;DHT22;7567;50.916;6.900;2023-07-29T06:04:41;18.90;99.90
14946;DHT22;7567;50.916;6.900;2023-07-29T06:07:08;18.90;99.90
14946;DHT22;7567;50.916;6.900;2023-07-29T06:09:33;18.90;99.90
14946;DHT22;7567;50.916;6.900;2023-07-29T06:11:59;19.00;99.90
14946;DHT22;7567;50.916;6.900;2023-07-29T06:14:26;19.00;99.90
14946;DHT22;7567;50.916;6.900;2023-07-29T06:16:52;19.00;99.90
14946;DHT22;7567;50.916;6.900;2023-07-29T06:19:19;19.10;99.90
14946;DHT22;7567;50.916;6.900;2023-07-29T06:21:46;19.10;99.90
14946;DHT22;7567;50.916;6.900;2023-07-29T06:24:12;19.10;99.90
14946;DHT22;7567;50.916;6.900;2023-07-29T06:26:38;19.10;99.90
14946;DHT22;7567;50.916;6.900;2023-07-29T06:29:04;19.20;99.90
14946;DHT22;7567;50.916;6.900;2023-07-29T06:31:30;19.20;99.90
14946;DHT22;7567;50.916;6.900;2023-07-29T06:33:58;19.20;99.90
14946;DHT22;7567;50.916;6.900;2023-07-29T06:36:24;19.20;99.90
14946;DHT22;7567;50.916;6.900;2023-07-29T06:38:50;19.20;99.90
14946;DHT22;7567;50.916;6.900;2023-07-29T06:41:16;19.20;99.90
14946;DHT22;7567;50.916;6.900;2023-07-29T06:43:42;19.20;99.90
14946;DHT22;7567;50.916;6.900;2023-07-29T06:46:08;19.20;99.90
14946;DHT22;7567;50.916;6.900;2023-07-29T06:48:34;19.20;99.90
14946;DHT22;7567;50.916;6.900;2023-07-29T06:50:59;19.20;99.90
14946;DHT22;7567;50.916;6.900;2023-07-29T06:53:29;19.30;99.90
14946;DHT22;7567;50.916;6.900;2023-07-29T06:55:55;19.30;99.90
14946;DHT22;7567;50.916;6.900;2023-07-29T06:58:21;19.30;99.90
14946;DHT22;7567;50.916;6.900;2023-07-29T07:00:47;19.50;99.90
14946;DHT22;7567;50.916;6.900;2023-07-29T07:03:13;19.60;99.90
14946;DHT22;7567;50.916;6.900;2023-07-29T07:05:39;19.70;99.90
14946;DHT22;7567;50.916;6.900;2023-07-29T07:08:05;19.80;99.90
14946;DHT22;7567;50.916;6.900;2023-07-29T07:10:31;19.80;99.90
14946;DHT22;7567;50.916;6.900;2023-07-29T07:12:59;19.90;99.90
14946;DHT22;7567;50.916;6.900;2023-07-29T07:15:25;19.90;99.90
14946;DHT22;7567;50.916;6.900;2023-07-29T07:17:52;19.90;99.90
14946;DHT22;7567;50.916;6.900;2023-07-29T07:20:18;20.00;99.90
14946;DHT22;7567;50.916;6.900;2023-07-29T07:22:43;19.90;99.90
14946;DHT22;7567;50.916;6.900;2023-07-29T07:25:10;19.90;99.90
14946;DHT22;7567;50.916;6.900;2023-07-29T07:27:36;19.90;99.90
14946;DHT22;7567;50.916;6.900;2023-07-29T07:30:03;19.90;99.90
14946;DHT22;7567;50.916;6.900;2023-07-29T07:32:29;19.90;99.90
14946;DHT22;7567;50.916;6.900;2023-07-29T07:34:55;20.00;99.90
14946;DHT22;7567;50.916;6.900;2023-07-29T07:37:21;19.90;99.90
14946;DHT22;7567;50.916;6.900;2023-07-29T07:39:47;20.00;99.90
14946;DHT22;7567;50.916;6.900;2023-07-29T07:42:12;20.10;99.90
14946;DHT22;7567;50.916;6.900;2023-07-29T07:44:38;20.10;99.90
14946;DHT22;7567;50.916;6.900;2023-07-29T07:47:04;20.00;99.90
14946;DHT22;7567;50.916;6.900;2023-07-29T07:49:31;20.00;99.90
14946;DHT22;7567;50.916;6.900;2023-07-29T07:51:57;20.00;99.90
14946;DHT22;7567;50.916;6.900;2023-07-29T07:54:23;20.00;99.90
14946;DHT22;7567;50.916;6.900;2023-07-29T07:56:49;20.00;99.90
14946;DHT22;7567;50.916;6.900;2023-07-29T07:59:15;20.10;99.90
14946;DHT22;7567;50.916;6.900;2023-07-29T08:01:41;20.10;99.90
14946;DHT22;7567;50.916;6.900;2023-07-29T08:04:07;20.10;99.90
14946;DHT22;7567;50.916;6.900;2023-07-29T08:06:33;20.10;99.90
14946;DHT22;7567;50.916;6.900;2023-07-29T08:08:59;20.20;99.90
14946;DHT22;7567;50.916;6.900;2023-07-29T08:11:25;20.30;99.90
14946;DHT22;7567;50.916;6.900;2023-07-29T08:13:51;20.40;99.90
14946;DHT22;7567;50.916;6.900;2023-07-29T08:16:18;20.40;99.90
14946;DHT22;7567;50.916;6.900;2023-07-29T08:18:44;20.50;99.90
14946;DHT22;7567;50.916;6.900;2023-07-29T08:21:10;20.50;99.90
14946;DHT22;7567;50.916;6.900;2023-07-29T08:23:36;20.50;99.90
14946;DHT22;7567;50.916;6.900;2023-07-29T08:26:04;20.50;99.90
14946;DHT22;7567;50.916;6.900;2023-07-29T08:28:32;20.50;99.90
14946;DHT22;7567;50.916;6.900;2023-07-29T08:30:58;20.50;99.90
14946;DHT22;7567;50.916;6.900;2023-07-29T08:33:26;20.60;99.90
14946;DHT22;7567;50.916;6.900;2023-07-29T08:35:52;20.80;99.90
14946;DHT22;7567;50.916;6.900;2023-07-29T08:38:19;20.70;99.90
14946;DHT22;7567;50.916;6.900;2023-07-29T08:40:58;20.80;99.90
14946;DHT22;7567;50.916;6.900;2023-07-29T08:43:32;20.60;99.90
14946;DHT22;7567;50.916;6.900;2023-07-29T08:45:59;20.50;99.90
14946;DHT22;7567;50.916;6.900;2023-07-29T08:48:42;20.40;99.90
14946;DHT22;7567;50.916;6.900;2023-07-29T08:51:09;20.40;99.90
14946;DHT22;7567;50.916;6.900;2023-07-29T08:53:36;20.30;99.90
14946;DHT22;7567;50.916;6.900;2023-07-29T08:56:03;20.30;99.90
14946;DHT22;7567;50.916;6.900;2023-07-29T08:58:31;20.40;99.90
14946;DHT22;7567;50.916;6.900;2023-07-29T09:00:57;20.50;99.90
14946;DHT22;7567;50.916;6.900;2023-07-29T09:03:23;20.60;99.90
14946;DHT22;7567;50.916;6.900;2023-07-29T09:05:50;20.70;99.90
14946;DHT22;7567;50.916;6.900;2023-07-29T09:08:16;20.70;99.90
14946;DHT22;7567;50.916;6.900;2023-07-29T09:10:42;20.80;99.90
14946;DHT22;7567;50.916;6.900;2023-07-29T09:13:08;20.70;99.90
14946;DHT22;7567;50.916;6.900;2023-07-29T09:15:35;20.60;99.90
14946;DHT22;7567;50.916;6.900;2023-07-29T09:18:28;20.50;99.90
14946;DHT22;7567;50.916;6.900;2023-07-29T09:20:54;20.50;99.90
14946;DHT22;7567;50.916;6.900;2023-07-29T09:23:23;20.40;99.90
14946;DHT22;7567;50.916;6.900;2023-07-29T09:25:49;20.40;99.90
14946;DHT22;7567;50.916;6.900;2023-07-29T09:28:19;20.40;99.90
14946;DHT22;7567;50.916;6.900;2023-07-29T09:30:46;20.40;99.90
14946;DHT22;7567;50.916;6.900;2023-07-29T09:33:12;20.40;99.90
14946;DHT22;7567;50.916;6.900;2023-07-29T09:35:38;20.50;99.90
14946;DHT22;7567;50.916;6.900;2023-07-29T09:38:05;20.50;99.90
14946;DHT22;7567;50.916;6.900;2023-07-29T09:40:40;20.60;99.90
14946;DHT22;7567;50.916;6.900;2023-07-29T09:43:07;20.60;99.90
14946;DHT22;7567;50.916;6.900;2023-07-29T09:45:35;20.60;99.90
14946;DHT22;7567;50.916;6.900;2023-07-29T09:48:02;20.70;99.90
14946;DHT22;7567;50.916;6.900;2023-07-29T09:50:28;20.80;99.90
14946;DHT22;7567;50.916;6.900;2023-07-29T09:52:56;21.00;99.90
14946;DHT22;7567;50.916;6.900;2023-07-29T09:55:24;21.20;99.90
14946;DHT22;7567;50.916;6.900;2023-07-29T09:57:57;21.40;99.90
14946;DHT22;7567;50.916;6.900;2023-07-29T10:00:30;21.70;99.90
14946;DHT22;7567;50.916;6.900;2023-07-29T10:02:57;22.00;99.90
14946;DHT22;7567;50.916;6.900;2023-07-29T10:05:26;22.00;99.90
14946;DHT22;7567;50.916;6.900;2023-07-29T10:07:52;22.10;99.90
14946;DHT22;7567;50.916;6.900;2023-07-29T10:10:20;22.20;99.90
14946;DHT22;7567;50.916;6.900;2023-07-29T10:12:46;22.10;99.90
14946;DHT22;7567;50.916;6.900;2023-07-29T10:15:13;21.90;99.90
14946;DHT22;7567;50.916;6.900;2023-07-29T10:17:40;22.20;99.90
14946;DHT22;7567;50.916;6.900;2023-07-29T10:20:07;22.20;99.90
14946;DHT22;7567;50.916;6.900;2023-07-29T10:22:41;22.10;99.90
14946;DHT22;7567;50.916;6.900;2023-07-29T10:30:13;21.70;99.90
14946;DHT22;7567;50.916;6.900;2023-07-29T10:32:42;21.60;99.90
14946;DHT22;7567;50.916;6.900;2023-07-29T10:35:09;21.50;99.90
14946;DHT22;7567;50.916;6.900;2023-07-29T10:37:36;21.40;99.90
14946;DHT22;7567;50.916;6.900;2023-07-29T10:40:07;21.20;99.90
14946;DHT22;7567;50.916;6.900;2023-07-29T10:42:33;21.00;99.90
14946;DHT22;7567;50.916;6.900;2023-07-29T10:44:58;20.80;99.90
14946;DHT22;7567;50.916;6.900;2023-07-29T10:47:28;20.80;99.90
14946;DHT22;7567;50.916;6.900;2023-07-29T10:49:59;20.80;99.90
14946;DHT22;7567;50.916;6.900;2023-07-29T10:54:59;20.80;99.90
14946;DHT22;7567;50.916;6.900;2023-07-29T10:59:58;21.10;99.90
14946;DHT22;7567;50.916;6.900;2023-07-29T11:02:39;21.20;99.90
14946;DHT22;7567;50.916;6.900;2023-07-29T11:05:17;21.20;99.90
14946;DHT22;7567;50.916;6.900;2023-07-29T11:07:49;21.20;99.90
14946;DHT22;7567;50.916;6.900;2023-07-29T11:10:15;21.10;99.90
14946;DHT22;7567;50.916;6.900;2023-07-29T11:12:44;21.00;99.90
14946;DHT22;7567;50.916;6.900;2023-07-29T11:15:29;21.00;99.90
14946;DHT22;7567;50.916;6.900;2023-07-29T11:18:00;20.80;99.90
14946;DHT22;7567;50.916;6.900;2023-07-29T11:20:31;20.70;99.90
14946;DHT22;7567;50.916;6.900;2023-07-29T11:22:58;20.80;99.90
14946;DHT22;7567;50.916;6.900;2023-07-29T11:25:25;20.70;99.90
14946;DHT22;7567;50.916;6.900;2023-07-29T11:27:53;20.80;99.90
14946;DHT22;7567;50.916;6.900;2023-07-29T11:30:19;20.80;99.90
14946;DHT22;7567;50.916;6.900;2023-07-29T11:32:45;20.80;99.90
14946;DHT22;7567;50.916;6.900;2023-07-29T11:35:13;21.00;99.90
14946;DHT22;7567;50.916;6.900;2023-07-29T11:37:42;21.20;99.90
14946;DHT22;7567;50.916;6.900;2023-07-29T11:40:08;21.40;99.90
14946;DHT22;7567;50.916;6.900;2023-07-29T11:42:37;21.60;99.90
14946;DHT22;7567;50.916;6.900;2023-07-29T11:45:04;22.00;99.90
14946;DHT22;7567;50.916;6.900;2023-07-29T11:47:32;22.10;99.90
14946;DHT22;7567;50.916;6.900;2023-07-29T11:50:12;22.30;99.90
14946;DHT22;7567;50.916;6.900;2023-07-29T11:52:42;22.50;99.90
14946;DHT22;7567;50.916;6.900;2023-07-29T11:55:09;23.10;99.90
14946;DHT22;7567;50.916;6.900;2023-07-29T11:57:37;23.10;99.90
14946;DHT22;7567;50.916;6.900;2023-07-29T12:00:04;23.30;99.90
14946;DHT22;7567;50.916;6.900;2023-07-29T12:02:32;23.40;99.90
14946;DHT22;7567;50.916;6.900;2023-07-29T12:04:58;23.30;99.90
14946;DHT22;7567;50.916;6.900;2023-07-29T12:07:25;23.30;23.70
14946;DHT22;7567;50.916;6.900;2023-07-29T12:09:52;23.30;33.10
14946;DHT22;7567;50.916;6.900;2023-07-29T12:12:18;23.60;4.00
14946;DHT22;7567;50.916;6.900;2023-07-29T12:14:47;23.80;30.70
14946;DHT22;7567;50.916;6.900;2023-07-29T12:17:12;23.70;1.00
14946;DHT22;7567;50.916;6.900;2023-07-29T12:19:39;23.80;1.00
14946;DHT22;7567;50.916;6.900;2023-07-29T12:22:08;24.10;1.00
14946;DHT22;7567;50.916;6.900;2023-07-29T12:24:37;24.30;1.00
14946;DHT22;7567;50.916;6.900;2023-07-29T12:27:03;24.00;6.50
14946;DHT22;7567;50.916;6.900;2023-07-29T12:29:29;23.70;1.00
14946;DHT22;7567;50.916;6.900;2023-07-29T12:32:03;23.60;1.00
14946;DHT22;7567;50.916;6.900;2023-07-29T12:34:30;23.80;1.00
14946;DHT22;7567;50.916;6.900;2023-07-29T12:36:58;24.00;1.00
14946;DHT22;7567;50.916;6.900;2023-07-29T12:39:29;24.10;27.20
14946;DHT22;7567;50.916;6.900;2023-07-29T12:41:56;24.20;1.00
14946;DHT22;7567;50.916;6.900;2023-07-29T12:44:23;24.30;1.00
14946;DHT22;7567;50.916;6.900;2023-07-29T12:46:49;24.60;1.00
14946;DHT22;7567;50.916;6.900;2023-07-29T12:49:15;25.10;1.00
14946;DHT22;7567;50.916;6.900;2023-07-29T12:51:41;25.10;1.00
14946;DHT22;7567;50.916;6.900;2023-07-29T12:54:06;24.60;1.00
14946;DHT22;7567;50.916;6.900;2023-07-29T12:56:33;24.50;1.00
14946;DHT22;7567;50.916;6.900;2023-07-29T12:59:00;24.40;1.00
14946;DHT22;7567;50.916;6.900;2023-07-29T13:01:27;24.30;15.10
14946;DHT22;7567;50.916;6.900;2023-07-29T13:03:53;24.10;1.00
14946;DHT22;7567;50.916;6.900;2023-07-29T13:06:19;24.00;1.00
14946;DHT22;7567;50.916;6.900;2023-07-29T13:08:45;24.10;1.00
14946;DHT22;7567;50.916;6.900;2023-07-29T13:11:11;24.10;1.00
14946;DHT22;7567;50.916;6.900;2023-07-29T13:13:37;24.10;1.00
14946;DHT22;7567;50.916;6.900;2023-07-29T13:16:03;24.10;1.00
14946;DHT22;7567;50.916;6.900;2023-07-29T13:18:29;23.90;14.60
14946;DHT22;7567;50.916;6.900;2023-07-29T13:20:55;23.70;4.60
14946;DHT22;7567;50.916;6.900;2023-07-29T13:23:21;23.60;1.00
14946;DHT22;7567;50.916;6.900;2023-07-29T13:25:47;23.40;99.90
14946;DHT22;7567;50.916;6.900;2023-07-29T13:28:13;23.10;99.90
14946;DHT22;7567;50.916;6.900;2023-07-29T13:30:39;23.00;99.90
14946;DHT22;7567;50.916;6.900;2023-07-29T13:33:06;22.90;99.90
14946;DHT22;7567;50.916;6.900;2023-07-29T13:35:33;22.70;99.90
14946;DHT22;7567;50.916;6.900;2023-07-29T13:37:59;22.60;99.90
14946;DHT22;7567;50.916;6.900;2023-07-29T13:40:25;22.30;99.90
14946;DHT22;7567;50.916;6.900;2023-07-29T13:42:51;22.10;99.90
14946;DHT22;7567;50.916;6.900;2023-07-29T13:45:18;21.90;99.90
14946;DHT22;7567;50.916;6.900;2023-07-29T13:47:44;21.80;99.90
14946;DHT22;7567;50.916;6.900;2023-07-29T13:50:10;21.80;99.90
14946;DHT22;7567;50.916;6.900;2023-07-29T13:52:36;21.70;99.90
14946;DHT22;7567;50.916;6.900;2023-07-29T13:55:05;21.50;99.90
14946;DHT22;7567;50.916;6.900;2023-07-29T13:57:32;21.50;99.90
14946;DHT22;7567;50.916;6.900;2023-07-29T13:59:58;21.50;99.90
14946;DHT22;7567;50.916;6.900;2023-07-29T14:02:24;21.60;99.90
14946;DHT22;7567;50.916;6.900;2023-07-29T14:04:52;21.50;99.90
14946;DHT22;7567;50.916;6.900;2023-07-29T14:07:17;21.60;99.90
14946;DHT22;7567;50.916;6.900;2023-07-29T14:09:43;21.50;99.90
14946;DHT22;7567;50.916;6.900;2023-07-29T14:12:09;21.60;99.90
14946;DHT22;7567;50.916;6.900;2023-07-29T14:14:40;21.50;99.90
14946;DHT22;7567;50.916;6.900;2023-07-29T14:17:06;21.50;99.90
14946;DHT22;7567;50.916;6.900;2023-07-29T14:19:34;21.50;99.90
14946;DHT22;7567;50.916;6.900;2023-07-29T14:21:59;21.60;99.90
14946;DHT22;7567;50.916;6.900;2023-07-29T14:24:25;21.80;99.90
14946;DHT22;7567;50.916;6.900;2023-07-29T14:26:51;22.10;99.90
14946;DHT22;7567;50.916;6.900;2023-07-29T14:29:17;22.30;99.90
14946;DHT22;7567;50.916;6.900;2023-07-29T14:31:43;22.60;99.90
14946;DHT22;7567;50.916;6.900;2023-07-29T14:34:09;22.70;99.90
14946;DHT22;7567;50.916;6.900;2023-07-29T14:36:36;22.90;99.90
14946;DHT22;7567;50.916;6.900;2023-07-29T14:39:02;23.00;99.90
14946;DHT22;7567;50.916;6.900;2023-07-29T14:41:28;22.90;99.90
14946;DHT22;7567;50.916;6.900;2023-07-29T14:43:53;22.70;99.90
14946;DHT22;7567;50.916;6.900;2023-07-29T14:46:19;22.60;99.90
14946;DHT22;7567;50.916;6.900;2023-07-29T14:48:45;22.50;99.90
14946;DHT22;7567;50.916;6.900;2023-07-29T14:51:13;22.30;99.90
14946;DHT22;7567;50.916;6.900;2023-07-29T14:53:38;22.30;99.90
14946;DHT22;7567;50.916;6.900;2023-07-29T14:56:04;22.20;99.90
14946;DHT22;7567;50.916;6.900;2023-07-29T14:58:30;22.10;99.90
14946;DHT22;7567;50.916;6.900;2023-07-29T15:00:56;22.20;99.90
14946;DHT22;7567;50.916;6.900;2023-07-29T15:03:23;22.10;99.90
14946;DHT22;7567;50.916;6.900;2023-07-29T15:06:11;21.90;99.90
14946;DHT22;7567;50.916;6.900;2023-07-29T15:08:36;21.90;99.90
14946;DHT22;7567;50.916;6.900;2023-07-29T15:11:02;21.90;99.90
14946;DHT22;7567;50.916;6.900;2023-07-29T15:13:28;21.90;99.90
14946;DHT22;7567;50.916;6.900;2023-07-29T15:15:54;21.90;99.90
14946;DHT22;7567;50.916;6.900;2023-07-29T15:18:20;22.00;99.90
14946;DHT22;7567;50.916;6.900;2023-07-29T15:20:46;22.40;99.90
14946;DHT22;7567;50.916;6.900;2023-07-29T15:23:12;22.70;99.90
14946;DHT22;7567;50.916;6.900;2023-07-29T15:25:38;22.90;99.90
14946;DHT22;7567;50.916;6.900;2023-07-29T15:28:04;23.20;99.90
14946;DHT22;7567;50.916;6.900;2023-07-29T15:30:30;23.30;99.90
14946;DHT22;7567;50.916;6.900;2023-07-29T15:32:56;23.40;99.90
14946;DHT22;7567;50.916;6.900;2023-07-29T15:35:22;23.40;99.90
14946;DHT22;7567;50.916;6.900;2023-07-29T15:37:48;23.40;99.90
14946;DHT22;7567;50.916;6.900;2023-07-29T15:40:14;23.10;92.00
14946;DHT22;7567;50.916;6.900;2023-07-29T15:42:40;23.00;99.90
14946;DHT22;7567;50.916;6.900;2023-07-29T15:45:06;22.80;99.90
14946;DHT22;7567;50.916;6.900;2023-07-29T15:47:32;22.60;99.90
14946;DHT22;7567;50.916;6.900;2023-07-29T15:49:58;22.50;99.90
14946;DHT22;7567;50.916;6.900;2023-07-29T15:52:24;22.40;99.90
14946;DHT22;7567;50.916;6.900;2023-07-29T15:54:51;22.20;99.90
14946;DHT22;7567;50.916;6.900;2023-07-29T15:57:17;22.10;99.90
14946;DHT22;7567;50.916;6.900;2023-07-29T15:59:43;22.10;99.90
14946;DHT22;7567;50.916;6.900;2023-07-29T16:02:09;22.00;99.90
14946;DHT22;7567;50.916;6.900;2023-07-29T16:04:35;22.00;99.90
14946;DHT22;7567;50.916;6.900;2023-07-29T16:07:01;22.00;99.90